Time;durP1;ratioP1;P1;durP2;ratioP2;P2;SDS_P1;SDS_P2;PMS_P1;PMS_P2;Temp;Humidity;BMP_temperature;BMP_pressure;BME280_temperature;BME280_humidity;BME280_pressure;Samples;Min_cycle;Max_cycle;Signal;HPM_P1;HPM_P2
2021/03/29 00:00:07;;;;;;;24.02;4.53;;;;;;;;;;5018166;28;20108;-64
2021/03/29 00:02:34;;;;;;;42.78;5.97;;;;;;;;;;5019192;28;20014;-62
2021/03/29 00:05:01;;;;;;;35.67;6.63;;;;;;;;;;5016848;28;20033;-62
2021/03/29 00:07:29;;;;;;;38.08;6.53;;;;;;;;;;5014319;28;20052;-59
2021/03/29 00:09:57;;;;;;;26.63;5.32;;;;;;;;;;4994991;28;20501;-65
2021/03/29 00:12:25;;;;;;;42.83;6.78;;;;;;;;;;5017281;28;20022;-65
2021/03/29 00:14:52;;;;;;;37.75;6.03;;;;;;;;;;5014769;28;20050;-59
2021/03/29 00:17:20;;;;;;;35.92;6.22;;;;;;;;;;5013199;28;20018;-64
2021/03/29 00:19:47;;;;;;;38.67;6.97;;;;;;;;;;5016490;28;20652;-65
2021/03/29 00:22:15;;;;;;;44.45;7.20;;;;;;;;;;5011892;28;20022;-64
2021/03/29 00:24:42;;;;;;;43.20;6.57;;;;;;;;;;5016419;28;20022;-65
2021/03/29 00:27:09;;;;;;;37.63;7.63;;;;;;;;;;5020011;28;20024;-65
2021/03/29 00:29:36;;;;;;;46.00;6.18;;;;;;;;;;5011866;28;20124;-64
2021/03/29 00:32:04;;;;;;;29.35;6.50;;;;;;;;;;5023483;28;20109;-63
2021/03/29 00:34:32;;;;;;;34.30;7.28;;;;;;;;;;5012221;28;20125;-64
2021/03/29 00:36:59;;;;;;;41.63;7.00;;;;;;;;;;5025555;28;20026;-65
2021/03/29 00:39:27;;;;;;;33.53;7.57;;;;;;;;;;5026782;28;20057;-65
2021/03/29 00:41:54;;;;;;;30.02;6.93;;;;;;;;;;5027225;28;20022;-66
2021/03/29 00:44:22;;;;;;;33.28;7.38;;;;;;;;;;5027349;28;20022;-66
2021/03/29 00:46:49;;;;;;;29.65;6.55;;;;;;;;;;5015674;28;20103;-65
2021/03/29 00:49:16;;;;;;;31.27;7.40;;;;;;;;;;5013382;28;20104;-60
2021/03/29 00:51:44;;;;;;;40.30;7.25;;;;;;;;;;5017843;28;20116;-58
2021/03/29 00:54:11;;;;;;;29.42;7.53;;;;;;;;;;5026486;28;20083;-58
2021/03/29 00:56:38;;;;;;;40.20;7.80;;;;;;;;;;5023834;28;20014;-58
2021/03/29 00:59:06;;;;;;;38.72;7.72;;;;;;;;;;5003587;28;20067;-58
2021/03/29 01:01:47;;;;;;;34.72;7.70;;;;;;;;;;5006605;28;20026;-58
2021/03/29 01:04:15;;;;;;;36.65;7.88;;;;;;;;;;5029269;28;20427;-58
2021/03/29 01:06:46;;;;;;;38.10;7.97;;;;;;;;;;5021222;28;20033;-61
2021/03/29 01:09:18;;;;;;;33.83;7.88;;;;;;;;;;5022493;28;20492;-58
2021/03/29 01:11:49;;;;;;;29.58;7.93;;;;;;;;;;5024088;28;20064;-58
2021/03/29 01:14:51;;;;;;;33.67;8.90;;;;;;;;;;5026155;28;20107;-59
2021/03/29 01:17:26;;;;;;;29.02;9.10;;;;;;;;;;4995309;28;20038;-58
2021/03/29 01:20:03;;;;;;;32.33;9.45;;;;;;;;;;5019554;28;20060;-59
2021/03/29 01:22:32;;;;;;;35.25;9.23;;;;;;;;;;5026494;28;20053;-59
2021/03/29 01:25:10;;;;;;;37.08;9.20;;;;;;;;;;5029145;28;20504;-59
2021/03/29 01:27:42;;;;;;;38.85;8.95;;;;;;;;;;5011906;28;20033;-61
2021/03/29 01:30:11;;;;;;;27.73;9.27;;;;;;;;;;5020857;28;20347;-61
2021/03/29 01:32:39;;;;;;;33.28;9.15;;;;;;;;;;5029402;28;20072;-57
2021/03/29 01:35:14;;;;;;;35.08;9.07;;;;;;;;;;5025299;28;20485;-62
2021/03/29 01:37:42;;;;;;;34.17;8.98;;;;;;;;;;5021587;28;20036;-62
2021/03/29 01:40:09;;;;;;;39.00;8.80;;;;;;;;;;5025215;28;20547;-60
2021/03/29 01:42:37;;;;;;;24.45;7.35;;;;;;;;;;5021457;28;20109;-58
2021/03/29 01:45:04;;;;;;;28.95;8.02;;;;;;;;;;5022240;28;20036;-62
2021/03/29 01:47:32;;;;;;;33.35;9.60;;;;;;;;;;5025656;28;20068;-61
2021/03/29 01:49:59;;;;;;;27.73;7.82;;;;;;;;;;5022539;28;20049;-63
2021/03/29 01:52:26;;;;;;;29.52;8.35;;;;;;;;;;5029644;28;20148;-58
2021/03/29 01:54:53;;;;;;;26.02;8.50;;;;;;;;;;5024925;28;20041;-62
2021/03/29 01:57:20;;;;;;;23.52;8.43;;;;;;;;;;5021315;28;20024;-61
2021/03/29 01:59:47;;;;;;;25.00;7.85;;;;;;;;;;5028801;28;20092;-62
2021/03/29 02:02:14;;;;;;;24.92;8.30;;;;;;;;;;5018527;28;20017;-61
2021/03/29 02:04:42;;;;;;;31.48;8.90;;;;;;;;;;5023382;28;20025;-60
2021/03/29 02:07:09;;;;;;;24.05;8.23;;;;;;;;;;5027403;28;20056;-57
2021/03/29 02:09:36;;;;;;;23.55;7.82;;;;;;;;;;5010041;28;20120;-61
2021/03/29 02:12:07;;;;;;;31.08;7.90;;;;;;;;;;5015424;28;20492;-62
2021/03/29 02:14:35;;;;;;;24.67;8.45;;;;;;;;;;5028976;28;20036;-62
2021/03/29 02:17:05;;;;;;;23.50;8.63;;;;;;;;;;5019819;28;20018;-61
2021/03/29 02:19:32;;;;;;;23.63;8.20;;;;;;;;;;5021180;28;20022;-62
2021/03/29 02:21:59;;;;;;;26.65;8.70;;;;;;;;;;5014024;28;20029;-60
2021/03/29 02:24:27;;;;;;;19.92;8.43;;;;;;;;;;5011720;28;20097;-59
2021/03/29 02:26:54;;;;;;;25.17;8.25;;;;;;;;;;5012648;28;20029;-63
2021/03/29 02:29:28;;;;;;;25.02;7.10;;;;;;;;;;5012696;28;20116;-63
2021/03/29 02:31:56;;;;;;;19.40;7.40;;;;;;;;;;5025141;28;20026;-61
2021/03/29 02:34:24;;;;;;;21.42;7.30;;;;;;;;;;5028000;28;20417;-60
2021/03/29 02:36:55;;;;;;;17.35;7.38;;;;;;;;;;5022646;28;20088;-62
2021/03/29 02:39:22;;;;;;;25.17;8.65;;;;;;;;;;5003209;28;20489;-60
2021/03/29 02:41:50;;;;;;;20.55;8.20;;;;;;;;;;5022228;28;20029;-62
2021/03/29 02:44:18;;;;;;;25.35;8.25;;;;;;;;;;5020468;28;20032;-64
2021/03/29 02:46:48;;;;;;;19.20;7.65;;;;;;;;;;5020062;28;20029;-64
2021/03/29 02:49:16;;;;;;;23.95;7.97;;;;;;;;;;5031682;28;20029;-65
2021/03/29 02:51:47;;;;;;;23.90;7.82;;;;;;;;;;5031537;28;20112;-63
2021/03/29 02:54:15;;;;;;;19.85;7.43;;;;;;;;;;5031726;28;20099;-64
2021/03/29 02:56:46;;;;;;;19.55;7.40;;;;;;;;;;5014094;28;20026;-64
2021/03/29 02:59:19;;;;;;;22.13;7.78;;;;;;;;;;5031614;28;20025;-63
2021/03/29 03:01:45;;;;;;;;;;;;;;;;;;5032320;28;20113;-63
2021/03/29 03:04:13;;;;;;;21.27;7.28;;;;;;;;;;5031768;28;19984;-63
2021/03/29 03:06:41;;;;;;;18.80;7.63;;;;;;;;;;5031400;28;20018;-63
2021/03/29 03:09:13;;;;;;;20.45;7.85;;;;;;;;;;5032008;28;20501;-63
2021/03/29 03:11:40;;;;;;;18.65;7.72;;;;;;;;;;5013940;28;20385;-63
2021/03/29 03:14:08;;;;;;;17.75;7.18;;;;;;;;;;5026494;28;20140;-64
2021/03/29 03:16:39;;;;;;;17.33;7.55;;;;;;;;;;5029809;28;20119;-63
2021/03/29 03:19:09;;;;;;;22.75;7.95;;;;;;;;;;5028016;28;20029;-63
2021/03/29 03:21:36;;;;;;;15.48;7.03;;;;;;;;;;5030438;28;20079;-63
2021/03/29 03:24:04;;;;;;;17.52;6.97;;;;;;;;;;5030276;28;20018;-63
2021/03/29 03:26:31;;;;;;;17.08;6.88;;;;;;;;;;5031209;28;20108;-63
2021/03/29 03:28:59;;;;;;;17.42;7.70;;;;;;;;;;5030261;28;20430;-63
2021/03/29 03:31:26;;;;;;;16.73;7.00;;;;;;;;;;5030598;28;20036;-64
2021/03/29 03:33:54;;;;;;;18.13;7.43;;;;;;;;;;5030754;28;20026;-63
2021/03/29 03:36:22;;;;;;;14.70;7.00;;;;;;;;;;5030616;28;20026;-64
2021/03/29 03:38:50;;;;;;;16.98;7.53;;;;;;;;;;5031205;28;20056;-63
2021/03/29 03:41:24;;;;;;;16.75;7.22;;;;;;;;;;5029124;28;20095;-66
2021/03/29 03:43:52;;;;;;;16.48;7.78;;;;;;;;;;5030252;28;20493;-64
2021/03/29 03:46:22;;;;;;;15.52;7.15;;;;;;;;;;5030676;28;20030;-65
2021/03/29 03:48:49;;;;;;;15.18;7.13;;;;;;;;;;5029970;28;20013;-65
2021/03/29 03:51:26;;;;;;;15.32;7.50;;;;;;;;;;5030391;28;20461;-66
2021/03/29 03:53:53;;;;;;;14.68;6.90;;;;;;;;;;5030943;28;20034;-64
2021/03/29 03:56:21;;;;;;;13.70;6.35;;;;;;;;;;5031946;28;20468;-62
2021/03/29 03:58:48;;;;;;;15.65;7.47;;;;;;;;;;5034879;28;20032;-64
2021/03/29 04:01:16;;;;;;;17.50;6.32;;;;;;;;;;5034194;28;20021;-63
2021/03/29 04:03:43;;;;;;;14.10;6.60;;;;;;;;;;5034461;28;20025;-60
2021/03/29 04:06:10;;;;;;;15.95;7.03;;;;;;;;;;4997048;28;20117;-63
2021/03/29 04:08:37;;;;;;;14.15;6.68;;;;;;;;;;5014216;28;20054;-63
2021/03/29 04:11:05;;;;;;;14.98;6.53;;;;;;;;;;5014883;28;20017;-65
2021/03/29 04:13:33;;;;;;;13.57;6.22;;;;;;;;;;5013782;28;20025;-65
2021/03/29 04:16:01;;;;;;;17.52;6.78;;;;;;;;;;5033990;28;20075;-65
2021/03/29 04:18:28;;;;;;;16.20;6.95;;;;;;;;;;5033944;28;20022;-64
2021/03/29 04:20:56;;;;;;;14.80;6.20;;;;;;;;;;5032264;28;20473;-65
2021/03/29 04:23:24;;;;;;;11.27;5.85;;;;;;;;;;5034076;28;20136;-66
2021/03/29 04:25:55;;;;;;;17.20;6.60;;;;;;;;;;5033569;28;20511;-66
2021/03/29 04:28:22;;;;;;;15.75;6.95;;;;;;;;;;5016495;28;20032;-66
2021/03/29 04:30:50;;;;;;;12.23;5.72;;;;;;;;;;5016222;28;20440;-65
2021/03/29 04:33:19;;;;;;;11.40;6.13;;;;;;;;;;5031979;28;20024;-63
2021/03/29 04:35:46;;;;;;;17.15;6.72;;;;;;;;;;5033089;28;20021;-65
2021/03/29 04:38:13;;;;;;;12.38;6.18;;;;;;;;;;5034323;28;20022;-66
2021/03/29 04:40:40;;;;;;;14.25;6.13;;;;;;;;;;5033843;28;20107;-66
2021/03/29 04:43:08;;;;;;;15.65;7.07;;;;;;;;;;5033712;28;20048;-65
2021/03/29 04:45:35;;;;;;;12.55;6.50;;;;;;;;;;5033405;28;20021;-65
2021/03/29 04:48:01;;;;;;;14.18;6.88;;;;;;;;;;5033492;28;20413;-65
2021/03/29 04:50:28;;;;;;;11.55;6.00;;;;;;;;;;5034020;28;20038;-65
2021/03/29 04:52:55;;;;;;;13.35;6.07;;;;;;;;;;5033044;28;20048;-63
2021/03/29 04:55:22;;;;;;;14.57;6.60;;;;;;;;;;5033879;28;20053;-63
2021/03/29 04:57:49;;;;;;;15.68;6.38;;;;;;;;;;5029804;28;20425;-64
2021/03/29 05:00:16;;;;;;;14.43;6.65;;;;;;;;;;5019112;28;20076;-64
2021/03/29 05:02:43;;;;;;;10.30;6.25;;;;;;;;;;5021213;28;20064;-65
2021/03/29 05:05:11;;;;;;;10.02;5.90;;;;;;;;;;5032578;28;20478;-65
2021/03/29 05:07:38;;;;;;;10.68;5.80;;;;;;;;;;5032726;28;20556;-66
2021/03/29 05:10:09;;;;;;;11.10;6.10;;;;;;;;;;5033294;28;20030;-65
2021/03/29 05:12:36;;;;;;;11.38;5.70;;;;;;;;;;5015392;28;20028;-66
2021/03/29 05:15:04;;;;;;;11.68;5.93;;;;;;;;;;5032178;28;20034;-65
2021/03/29 05:17:31;;;;;;;9.50;5.53;;;;;;;;;;5015695;28;20056;-65
2021/03/29 05:19:58;;;;;;;14.35;6.38;;;;;;;;;;5033018;28;20545;-65
2021/03/29 05:22:25;;;;;;;10.95;5.95;;;;;;;;;;5015585;28;20025;-63
2021/03/29 05:24:52;;;;;;;13.35;5.10;;;;;;;;;;5032932;28;20025;-66
2021/03/29 05:27:19;;;;;;;10.65;5.20;;;;;;;;;;5015295;28;20106;-65
2021/03/29 05:29:47;;;;;;;12.52;5.53;;;;;;;;;;5032733;28;20026;-65
2021/03/29 05:32:21;;;;;;;12.48;5.47;;;;;;;;;;5033284;28;20021;-64
2021/03/29 05:34:49;;;;;;;9.93;5.40;;;;;;;;;;5032830;28;20061;-65
2021/03/29 05:37:17;;;;;;;10.23;5.45;;;;;;;;;;5032598;28;20018;-65
2021/03/29 05:39:48;;;;;;;10.98;5.75;;;;;;;;;;5032699;28;20036;-67
2021/03/29 05:42:15;;;;;;;8.35;4.75;;;;;;;;;;5032602;28;20095;-65
2021/03/29 05:44:42;;;;;;;11.63;5.38;;;;;;;;;;5031851;28;20036;-66
2021/03/29 05:47:09;;;;;;;10.85;5.50;;;;;;;;;;5032326;28;20096;-65
2021/03/29 05:49:36;;;;;;;9.40;4.90;;;;;;;;;;5032700;28;20037;-66
2021/03/29 05:52:03;;;;;;;11.35;4.95;;;;;;;;;;5032003;28;20025;-66
2021/03/29 05:54:30;;;;;;;10.70;5.25;;;;;;;;;;5032161;28;20062;-65
2021/03/29 05:56:58;;;;;;;7.93;5.03;;;;;;;;;;5032296;28;20021;-64
2021/03/29 05:59:27;;;;;;;9.52;5.57;;;;;;;;;;5032214;28;20037;-66
2021/03/29 06:01:55;;;;;;;7.82;4.90;;;;;;;;;;5032454;28;20029;-66
2021/03/29 06:04:40;;;;;;;10.27;4.93;;;;;;;;;;5031729;28;20359;-66
2021/03/29 06:07:31;;;;;;;9.80;4.90;;;;;;;;;;5032081;28;20037;-66
2021/03/29 06:10:08;;;;;;;8.07;5.03;;;;;;;;;;5022225;28;20077;-65
2021/03/29 06:12:45;;;;;;;8.98;4.57;;;;;;;;;;5032437;28;20013;-66
2021/03/29 06:15:12;;;;;;;7.80;4.57;;;;;;;;;;5031023;28;20044;-64
2021/03/29 06:17:39;;;;;;;7.82;4.20;;;;;;;;;;5031816;28;20079;-65
2021/03/29 06:20:07;;;;;;;7.35;4.30;;;;;;;;;;5030604;28;20103;-65
2021/03/29 06:22:35;;;;;;;7.70;4.82;;;;;;;;;;5032182;28;20465;-64
2021/03/29 06:25:08;;;;;;;8.10;4.57;;;;;;;;;;5031244;28;20034;-63
2021/03/29 06:27:43;;;;;;;8.07;4.30;;;;;;;;;;5031813;28;20033;-65
2021/03/29 06:30:13;;;;;;;9.38;4.72;;;;;;;;;;5031543;28;20028;-65
2021/03/29 06:32:52;;;;;;;8.10;4.20;;;;;;;;;;5031716;28;20029;-66
2021/03/29 06:35:21;;;;;;;10.23;4.25;;;;;;;;;;5031505;28;20072;-65
2021/03/29 06:37:48;;;;;;;8.88;4.15;;;;;;;;;;5031422;28;20029;-66
2021/03/29 06:40:16;;;;;;;9.85;4.80;;;;;;;;;;5031790;28;20428;-62
2021/03/29 06:42:43;;;;;;;7.95;4.50;;;;;;;;;;5150605;23;20058;-62
2021/03/29 06:45:15;;;;;;;6.20;3.90;;;;;;;;;;5005059;28;20040;-67
2021/03/29 06:47:42;;;;;;;9.52;4.32;;;;;;;;;;5011940;28;20022;-66
2021/03/29 06:50:28;;;;;;;10.13;3.80;;;;;;;;;;5031974;28;20033;-65
2021/03/29 06:52:55;;;;;;;7.45;4.20;;;;;;;;;;5031412;28;20047;-65
2021/03/29 06:55:23;;;;;;;8.07;4.28;;;;;;;;;;5031941;28;20029;-66
2021/03/29 06:58:06;;;;;;;7.65;4.10;;;;;;;;;;5004303;28;20025;-66
2021/03/29 07:00:35;;;;;;;9.18;3.97;;;;;;;;;;5003531;28;20133;-66
2021/03/29 07:03:06;;;;;;;6.30;4.15;;;;;;;;;;4992451;28;20022;-65
2021/03/29 07:05:33;;;;;;;9.88;3.97;;;;;;;;;;4992174;28;20022;-66
2021/03/29 07:08:01;;;;;;;6.10;3.70;;;;;;;;;;4992598;28;20026;-65
2021/03/29 07:10:28;;;;;;;5.63;3.55;;;;;;;;;;4991935;28;20041;-65
2021/03/29 07:12:56;;;;;;;6.43;3.83;;;;;;;;;;5004100;28;20026;-64
2021/03/29 07:15:24;;;;;;;7.82;4.00;;;;;;;;;;5025225;28;20119;-66
2021/03/29 07:17:51;;;;;;;6.93;3.63;;;;;;;;;;5031733;28;20056;-66
2021/03/29 07:20:29;;;;;;;7.03;4.00;;;;;;;;;;5031450;28;20449;-66
2021/03/29 07:22:57;;;;;;;6.05;3.60;;;;;;;;;;5031634;28;20025;-66
2021/03/29 07:25:31;;;;;;;5.88;3.20;;;;;;;;;;5031507;28;20029;-66
2021/03/29 07:27:59;;;;;;;5.50;3.75;;;;;;;;;;5031430;28;20030;-66
2021/03/29 07:30:44;;;;;;;7.85;3.35;;;;;;;;;;5031766;28;20021;-67
2021/03/29 07:33:13;;;;;;;7.05;3.63;;;;;;;;;;5035048;28;20061;-67
2021/03/29 07:35:48;;;;;;;5.45;3.60;;;;;;;;;;5035180;28;20056;-65
2021/03/29 07:38:15;;;;;;;7.13;3.65;;;;;;;;;;5034969;28;20021;-65
2021/03/29 07:40:44;;;;;;;5.63;3.28;;;;;;;;;;5035357;28;20082;-65
2021/03/29 07:43:15;;;;;;;5.35;3.75;;;;;;;;;;5034769;28;20041;-66
2021/03/29 07:45:44;;;;;;;6.10;3.33;;;;;;;;;;5015523;28;20033;-66
2021/03/29 07:48:14;;;;;;;5.85;3.20;;;;;;;;;;5015088;28;20033;-65
2021/03/29 07:50:41;;;;;;;7.40;3.55;;;;;;;;;;5015718;28;20474;-65
2021/03/29 07:53:18;;;;;;;6.63;3.60;;;;;;;;;;5015112;28;20029;-65
2021/03/29 07:55:46;;;;;;;7.22;3.30;;;;;;;;;;5015240;28;20037;-66
2021/03/29 07:58:15;;;;;;;7.43;3.65;;;;;;;;;;5015446;28;20481;-66
2021/03/29 08:00:43;;;;;;;6.72;3.72;;;;;;;;;;5015028;28;20041;-66
2021/03/29 08:03:12;;;;;;;5.22;3.22;;;;;;;;;;5015046;28;20413;-65
2021/03/29 08:05:40;;;;;;;5.72;3.30;;;;;;;;;;5014704;28;20030;-66
2021/03/29 08:08:25;;;;;;;4.68;3.30;;;;;;;;;;5015074;28;20034;-65
2021/03/29 08:10:57;;;;;;;5.93;3.33;;;;;;;;;;5014546;28;20034;-66
2021/03/29 08:13:42;;;;;;;5.05;3.08;;;;;;;;;;5014836;28;20120;-66
2021/03/29 08:16:11;;;;;;;4.32;2.80;;;;;;;;;;5014682;28;20026;-66
2021/03/29 08:18:56;;;;;;;5.53;3.20;;;;;;;;;;5015042;28;20030;-65
2021/03/29 08:21:42;;;;;;;4.78;3.15;;;;;;;;;;5014613;28;20378;-66
2021/03/29 08:24:16;;;;;;;5.53;3.30;;;;;;;;;;5014694;28;20041;-66
2021/03/29 08:26:44;;;;;;;6.35;3.22;;;;;;;;;;5014154;28;20026;-66
2021/03/29 08:29:12;;;;;;;4.25;2.80;;;;;;;;;;5014663;28;20037;-66
2021/03/29 08:31:57;;;;;;;6.18;3.25;;;;;;;;;;5014863;28;20050;-66
2021/03/29 08:34:24;;;;;;;5.20;3.05;;;;;;;;;;5014473;28;20484;-66
2021/03/29 08:36:51;;;;;;;5.63;3.05;;;;;;;;;;5014614;28;20105;-66
2021/03/29 08:39:18;;;;;;;4.15;2.85;;;;;;;;;;5015065;28;20030;-65
2021/03/29 08:41:46;;;;;;;4.63;2.88;;;;;;;;;;5015535;28;20443;-65
2021/03/29 08:44:13;;;;;;;3.75;2.60;;;;;;;;;;5013724;28;20120;-66
2021/03/29 08:46:40;;;;;;;4.60;2.90;;;;;;;;;;5014576;28;20381;-66
2021/03/29 08:49:11;;;;;;;4.63;2.50;;;;;;;;;;5015000;28;20366;-66
2021/03/29 08:51:38;;;;;;;5.03;2.65;;;;;;;;;;5014509;28;20409;-66
2021/03/29 08:54:06;;;;;;;5.50;2.72;;;;;;;;;;5015092;28;20113;-66
2021/03/29 08:56:54;;;;;;;4.53;2.45;;;;;;;;;;5014263;28;20405;-64
2021/03/29 08:59:27;;;;;;;4.55;2.75;;;;;;;;;;5015179;28;20091;-66
2021/03/29 09:01:54;;;;;;;5.93;2.67;;;;;;;;;;5014916;28;20030;-66
2021/03/29 09:04:22;;;;;;;5.10;2.70;;;;;;;;;;5014364;28;20026;-66
2021/03/29 09:06:58;;;;;;;3.88;2.60;;;;;;;;;;5014039;28;20422;-65
2021/03/29 09:09:25;;;;;;;3.42;2.17;;;;;;;;;;5014833;28;20033;-66
2021/03/29 09:11:53;;;;;;;5.35;2.70;;;;;;;;;;5014473;28;20428;-63
2021/03/29 09:14:21;;;;;;;4.55;2.55;;;;;;;;;;5013762;28;20030;-65
2021/03/29 09:16:57;;;;;;;4.50;2.60;;;;;;;;;;5013939;28;20488;-64
2021/03/29 09:19:24;;;;;;;3.10;2.33;;;;;;;;;;5014570;28;20663;-66
2021/03/29 09:21:59;;;;;;;3.35;2.50;;;;;;;;;;5014101;28;20084;-65
2021/03/29 09:24:27;;;;;;;3.85;2.65;;;;;;;;;;5013826;28;20080;-66
2021/03/29 09:27:03;;;;;;;2.95;2.25;;;;;;;;;;5013714;28;20413;-66
2021/03/29 09:29:32;;;;;;;4.50;2.38;;;;;;;;;;5014210;28;20077;-65
2021/03/29 09:32:10;;;;;;;5.15;2.47;;;;;;;;;;5011507;28;20026;-66
2021/03/29 09:34:37;;;;;;;4.03;2.17;;;;;;;;;;5013307;28;20495;-66
2021/03/29 09:37:05;;;;;;;3.60;2.20;;;;;;;;;;5016279;28;20026;-64
2021/03/29 09:39:33;;;;;;;4.60;2.10;;;;;;;;;;5033149;28;20430;-66
2021/03/29 09:42:01;;;;;;;2.75;2.03;;;;;;;;;;5033377;28;20029;-65
2021/03/29 09:44:30;;;;;;;3.50;2.00;;;;;;;;;;5032078;28;20504;-65
2021/03/29 09:46:58;;;;;;;4.20;2.13;;;;;;;;;;5033285;28;20104;-66
2021/03/29 09:49:25;;;;;;;5.70;2.28;;;;;;;;;;5032912;28;20416;-65
2021/03/29 09:52:03;;;;;;;3.17;2.03;;;;;;;;;;5033166;28;20075;-65
2021/03/29 09:54:32;;;;;;;2.58;1.95;;;;;;;;;;5032273;28;20092;-66
2021/03/29 09:57:22;;;;;;;4.00;1.95;;;;;;;;;;5032919;28;20026;-64
2021/03/29 09:59:53;;;;;;;2.72;1.75;;;;;;;;;;5032483;28;20491;-66
2021/03/29 10:02:27;;;;;;;5.30;2.33;;;;;;;;;;5032932;28;20021;-66
2021/03/29 10:05:05;;;;;;;3.78;2.00;;;;;;;;;;5032122;28;20025;-66
2021/03/29 10:07:32;;;;;;;3.53;2.30;;;;;;;;;;4998859;28;20034;-63
2021/03/29 10:10:04;;;;;;;2.92;1.77;;;;;;;;;;4974400;28;20056;-58
2021/03/29 10:12:32;;;;;;;3.42;1.92;;;;;;;;;;4970963;28;20536;-65
2021/03/29 10:15:09;;;;;;;3.10;1.83;;;;;;;;;;4972221;28;20038;-66
2021/03/29 10:17:36;;;;;;;5.75;1.85;;;;;;;;;;5005054;28;20057;-66
2021/03/29 10:20:06;;;;;;;2.83;1.77;;;;;;;;;;5012743;28;20026;-64
2021/03/29 10:22:33;;;;;;;3.38;1.95;;;;;;;;;;5012368;28;20034;-66
2021/03/29 10:25:05;;;;;;;3.17;1.75;;;;;;;;;;5012806;28;20531;-66
2021/03/29 10:27:46;;;;;;;2.97;2.17;;;;;;;;;;5012339;28;20098;-65
2021/03/29 10:30:19;;;;;;;4.30;1.95;;;;;;;;;;5012845;28;20030;-66
2021/03/29 10:33:08;;;;;;;4.05;1.80;;;;;;;;;;5014755;28;20021;-66
2021/03/29 10:35:36;;;;;;;3.15;1.70;;;;;;;;;;5016202;28;20038;-65
2021/03/29 10:38:04;;;;;;;4.30;1.95;;;;;;;;;;5005003;28;20018;-66
2021/03/29 10:40:31;;;;;;;2.78;1.83;;;;;;;;;;5012110;28;20030;-66
2021/03/29 10:42:58;;;;;;;2.25;1.48;;;;;;;;;;5012429;28;20060;-65
2021/03/29 10:45:25;;;;;;;2.13;1.67;;;;;;;;;;5026718;28;20048;-66
2021/03/29 10:47:52;;;;;;;2.65;1.80;;;;;;;;;;5032211;28;20071;-66
2021/03/29 10:50:21;;;;;;;1.90;1.33;;;;;;;;;;5032047;28;20117;-65
2021/03/29 10:52:51;;;;;;;2.17;1.40;;;;;;;;;;5031987;28;20633;-66
2021/03/29 10:55:20;;;;;;;2.75;1.50;;;;;;;;;;5030720;28;20382;-65
2021/03/29 10:57:47;;;;;;;3.25;1.70;;;;;;;;;;5031625;28;20032;-66
2021/03/29 11:00:14;;;;;;;4.07;1.65;;;;;;;;;;5032032;28;20076;-66
2021/03/29 11:02:41;;;;;;;2.97;1.70;;;;;;;;;;5028135;28;20096;-66
2021/03/29 11:05:08;;;;;;;2.15;1.50;;;;;;;;;;5012177;28;20072;-62
2021/03/29 11:07:35;;;;;;;2.97;1.70;;;;;;;;;;5011896;28;20493;-66
2021/03/29 11:10:03;;;;;;;3.03;1.60;;;;;;;;;;5011955;28;20034;-67
2021/03/29 11:12:30;;;;;;;2.97;1.70;;;;;;;;;;5012385;28;20092;-67
2021/03/29 11:14:57;;;;;;;3.03;1.65;;;;;;;;;;5011437;28;20092;-66
2021/03/29 11:17:27;;;;;;;3.95;1.58;;;;;;;;;;5012349;28;20022;-66
2021/03/29 11:19:54;;;;;;;2.15;1.40;;;;;;;;;;5011518;28;20063;-67
2021/03/29 11:22:21;;;;;;;2.72;1.48;;;;;;;;;;5012117;28;20117;-64
2021/03/29 11:24:48;;;;;;;3.60;1.48;;;;;;;;;;5011639;28;20038;-63
2021/03/29 11:27:15;;;;;;;4.15;1.30;;;;;;;;;;5012164;28;20108;-56
2021/03/29 11:29:42;;;;;;;3.08;1.50;;;;;;;;;;5012232;28;20033;-56
2021/03/29 11:32:09;;;;;;;3.30;1.67;;;;;;;;;;5011634;28;20026;-56
2021/03/29 11:34:36;;;;;;;2.65;1.50;;;;;;;;;;5011841;28;20065;-58
2021/03/29 11:37:04;;;;;;;2.20;1.60;;;;;;;;;;5011397;28;20014;-58
2021/03/29 11:39:31;;;;;;;4.93;1.85;;;;;;;;;;5011825;28;20037;-61
2021/03/29 11:42:00;;;;;;;2.75;1.42;;;;;;;;;;5011307;28;20030;-63
2021/03/29 11:44:27;;;;;;;4.93;1.75;;;;;;;;;;5011707;28;20445;-58
2021/03/29 11:46:54;;;;;;;2.15;1.30;;;;;;;;;;5011932;28;20056;-57
2021/03/29 11:49:21;;;;;;;6.45;1.65;;;;;;;;;;5011107;28;20034;-58
2021/03/29 11:51:48;;;;;;;3.17;1.63;;;;;;;;;;5011979;28;20081;-61
2021/03/29 11:54:15;;;;;;;3.17;1.35;;;;;;;;;;5011410;28;20065;-57
2021/03/29 11:56:42;;;;;;;3.53;1.65;;;;;;;;;;5011729;28;20026;-58
2021/03/29 11:59:09;;;;;;;3.35;1.58;;;;;;;;;;5011493;28;20060;-62
2021/03/29 12:01:44;;;;;;;3.92;1.50;;;;;;;;;;5011913;28;20073;-59
2021/03/29 12:06:50;;;;;;;3.55;1.80;;;;;;;;;;5011272;28;20406;-66
2021/03/29 12:09:25;;;;;;;2.45;1.55;;;;;;;;;;5011557;28;20036;-66
2021/03/29 12:11:59;;;;;;;2.17;1.38;;;;;;;;;;5012197;28;20049;-66
2021/03/29 12:14:33;;;;;;;5.47;1.60;;;;;;;;;;5011998;28;20397;-66
2021/03/29 12:17:02;;;;;;;3.58;1.50;;;;;;;;;;5011777;28;20422;-61
2021/03/29 12:19:30;;;;;;;4.72;1.70;;;;;;;;;;5010623;28;20136;-65
2021/03/29 12:22:02;;;;;;;6.45;1.58;;;;;;;;;;5014922;28;20432;-69
2021/03/29 12:24:31;;;;;;;5.88;1.20;;;;;;;;;;5008466;28;20032;-72
2021/03/29 12:27:02;;;;;;;3.42;1.48;;;;;;;;;;5012368;28;20037;-69
2021/03/29 12:29:37;;;;;;;9.48;2.38;;;;;;;;;;5015103;28;20036;-69
2021/03/29 12:32:09;;;;;;;9.63;2.67;;;;;;;;;;5008800;28;20442;-66
2021/03/29 12:34:41;;;;;;;5.80;2.35;;;;;;;;;;4999093;28;20055;-68
2021/03/29 12:37:08;;;;;;;8.53;2.87;;;;;;;;;;5005403;28;21437;-57
2021/03/29 12:39:44;;;;;;;10.45;3.38;;;;;;;;;;5019683;28;20318;-65
2021/03/29 12:42:13;;;;;;;10.82;3.25;;;;;;;;;;5003359;28;20556;-60
2021/03/29 12:44:40;;;;;;;13.15;3.47;;;;;;;;;;5002338;28;20513;-62
2021/03/29 12:47:11;;;;;;;16.30;3.97;;;;;;;;;;5005116;28;20039;-64
2021/03/29 12:49:38;;;;;;;10.98;2.63;;;;;;;;;;5021961;28;20452;-62
2021/03/29 12:52:05;;;;;;;13.88;4.07;;;;;;;;;;5015866;28;20032;-62
2021/03/29 12:54:34;;;;;;;17.65;3.33;;;;;;;;;;4996109;28;20397;-67
2021/03/29 12:57:01;;;;;;;12.02;3.45;;;;;;;;;;5014308;28;20497;-61
2021/03/29 12:59:29;;;;;;;15.02;3.53;;;;;;;;;;4990786;28;20394;-61
2021/03/29 13:01:57;;;;;;;16.83;4.07;;;;;;;;;;5009324;28;20423;-62
2021/03/29 13:04:30;;;;;;;14.68;3.78;;;;;;;;;;4997065;28;20035;-63
2021/03/29 13:09:37;;;;;;;14.38;3.75;;;;;;;;;;5012570;28;20026;-62
2021/03/29 13:12:05;;;;;;;12.75;3.13;;;;;;;;;;5010132;28;20417;-63
2021/03/29 13:14:52;;;;;;;11.77;3.25;;;;;;;;;;5013584;28;20120;-62
2021/03/29 13:17:18;;;;;;;10.50;3.03;;;;;;;;;;4987667;28;20064;-65
2021/03/29 13:19:45;;;;;;;10.75;3.38;;;;;;;;;;5014054;28;20034;-63
2021/03/29 13:22:12;;;;;;;10.82;3.10;;;;;;;;;;4995828;28;20367;-62
2021/03/29 13:24:42;;;;;;;15.55;3.22;;;;;;;;;;5011308;28;20081;-62
2021/03/29 13:27:09;;;;;;;14.52;3.53;;;;;;;;;;5013922;28;20056;-62
2021/03/29 13:29:36;;;;;;;16.80;3.60;;;;;;;;;;5013744;28;20083;-63
2021/03/29 13:32:10;;;;;;;14.55;3.97;;;;;;;;;;5013631;28;20017;-63
2021/03/29 13:34:37;;;;;;;13.10;3.97;;;;;;;;;;5012175;28;20128;-66
2021/03/29 13:37:05;;;;;;;17.05;4.05;;;;;;;;;;5012464;28;20148;-62
2021/03/29 13:39:32;;;;;;;20.17;6.90;;;;;;;;;;5013531;28;20462;-58
2021/03/29 13:41:59;;;;;;;25.13;10.40;;;;;;;;;;5013302;28;20119;-60
2021/03/29 13:44:26;;;;;;;27.15;9.75;;;;;;;;;;5013604;28;20045;-62
2021/03/29 13:46:53;;;;;;;17.65;6.38;;;;;;;;;;5011251;28;20125;-68
2021/03/29 13:49:22;;;;;;;17.83;5.35;;;;;;;;;;5013111;28;20421;-69
2021/03/29 13:51:51;;;;;;;16.60;4.82;;;;;;;;;;5013761;28;20084;-62
2021/03/29 13:54:18;;;;;;;11.60;3.83;;;;;;;;;;5013288;28;20101;-61
2021/03/29 13:56:45;;;;;;;13.40;4.40;;;;;;;;;;5013237;28;20037;-65
2021/03/29 13:59:12;;;;;;;18.17;4.93;;;;;;;;;;5011248;28;20026;-67
2021/03/29 14:01:40;;;;;;;14.13;4.57;;;;;;;;;;5013108;28;20022;-62
2021/03/29 14:04:13;;;;;;;16.15;4.57;;;;;;;;;;5013294;28;20022;-69
2021/03/29 14:06:40;;;;;;;10.75;4.05;;;;;;;;;;5013443;28;20089;-68
2021/03/29 14:09:08;;;;;;;14.93;4.10;;;;;;;;;;5013112;28;20029;-68
2021/03/29 14:11:35;;;;;;;12.60;3.35;;;;;;;;;;5011027;28;20058;-61
2021/03/29 14:14:02;;;;;;;13.77;3.22;;;;;;;;;;5012768;28;20509;-64
2021/03/29 14:16:29;;;;;;;12.93;2.83;;;;;;;;;;5013175;28;20029;-67
2021/03/29 14:18:57;;;;;;;14.15;2.50;;;;;;;;;;5012926;28;20037;-61
2021/03/29 14:21:25;;;;;;;8.50;2.00;;;;;;;;;;5012761;28;20022;-64
2021/03/29 14:23:53;;;;;;;9.43;2.20;;;;;;;;;;5011169;28;20029;-63
2021/03/29 14:26:20;;;;;;;10.35;1.80;;;;;;;;;;5012865;28;20046;-62
2021/03/29 14:28:47;;;;;;;10.77;1.52;;;;;;;;;;5012895;28;20038;-61
2021/03/29 14:31:14;;;;;;;6.65;1.80;;;;;;;;;;5012788;28;20022;-59
2021/03/29 14:33:44;;;;;;;9.75;2.17;;;;;;;;;;5011919;28;20117;-62
2021/03/29 14:41:26;;;;;;;13.45;1.73;;;;;;;;;;5012644;28;20091;-53
2021/03/29 14:46:40;;;;;;;10.25;2.20;;;;;;;;;;5011161;28;20052;-61
2021/03/29 14:49:07;;;;;;;8.70;1.52;;;;;;;;;;5012407;28;20030;-63
2021/03/29 14:51:35;;;;;;;5.35;1.50;;;;;;;;;;5012564;28;20426;-65
2021/03/29 14:54:02;;;;;;;7.70;1.38;;;;;;;;;;5012671;28;20026;-63
2021/03/29 14:56:29;;;;;;;7.20;1.48;;;;;;;;;;5012273;28;20034;-67
2021/03/29 14:58:56;;;;;;;14.60;2.20;;;;;;;;;;5010067;28;20025;-57
2021/03/29 15:01:24;;;;;;;10.40;1.55;;;;;;;;;;5012185;28;20033;-64